sensor_id;sensor_type;location;lat;lon;timestamp;P1;durP1;ratioP1;P2;durP2;ratioP2
15358;SDS011;7779;49.596;11.070;2023-12-22T00:02:07;2.00;;;0.80;;
15358;SDS011;7779;49.596;11.070;2023-12-22T00:04:33;2.47;;;0.60;;
15358;SDS011;7779;49.596;11.070;2023-12-22T00:06:59;4.43;;;0.73;;
15358;SDS011;7779;49.596;11.070;2023-12-22T00:09:24;3.17;;;1.10;;
15358;SDS011;7779;49.596;11.070;2023-12-22T00:11:50;4.20;;;0.90;;
15358;SDS011;7779;49.596;11.070;2023-12-22T00:14:16;2.47;;;0.70;;
15358;SDS011;7779;49.596;11.070;2023-12-22T00:16:42;1.90;;;0.87;;
15358;SDS011;7779;49.596;11.070;2023-12-22T00:19:07;3.00;;;0.70;;
15358;SDS011;7779;49.596;11.070;2023-12-22T00:21:34;1.77;;;0.70;;
15358;SDS011;7779;49.596;11.070;2023-12-22T00:23:59;6.27;;;1.00;;
15358;SDS011;7779;49.596;11.070;2023-12-22T00:26:25;3.63;;;0.90;;
15358;SDS011;7779;49.596;11.070;2023-12-22T00:28:51;2.90;;;0.63;;
15358;SDS011;7779;49.596;11.070;2023-12-22T00:31:16;1.93;;;0.73;;
15358;SDS011;7779;49.596;11.070;2023-12-22T00:33:43;1.27;;;0.67;;
15358;SDS011;7779;49.596;11.070;2023-12-22T00:36:09;3.83;;;1.00;;
15358;SDS011;7779;49.596;11.070;2023-12-22T00:38:35;3.83;;;0.90;;
15358;SDS011;7779;49.596;11.070;2023-12-22T00:41:00;3.47;;;1.07;;
15358;SDS011;7779;49.596;11.070;2023-12-22T00:43:26;1.10;;;0.60;;
15358;SDS011;7779;49.596;11.070;2023-12-22T00:45:52;2.90;;;0.70;;
15358;SDS011;7779;49.596;11.070;2023-12-22T00:48:17;3.33;;;0.83;;
15358;SDS011;7779;49.596;11.070;2023-12-22T00:50:43;2.93;;;0.90;;
15358;SDS011;7779;49.596;11.070;2023-12-22T00:53:09;5.30;;;0.90;;
15358;SDS011;7779;49.596;11.070;2023-12-22T00:55:35;3.20;;;0.90;;
15358;SDS011;7779;49.596;11.070;2023-12-22T00:58:00;4.17;;;1.00;;
15358;SDS011;7779;49.596;11.070;2023-12-22T01:00:26;3.63;;;1.00;;
15358;SDS011;7779;49.596;11.070;2023-12-22T01:02:52;3.97;;;1.00;;
15358;SDS011;7779;49.596;11.070;2023-12-22T01:05:17;2.63;;;1.20;;
15358;SDS011;7779;49.596;11.070;2023-12-22T01:07:43;5.93;;;1.20;;
15358;SDS011;7779;49.596;11.070;2023-12-22T01:10:09;4.10;;;0.80;;
15358;SDS011;7779;49.596;11.070;2023-12-22T01:12:34;4.30;;;0.90;;
15358;SDS011;7779;49.596;11.070;2023-12-22T01:15:00;3.10;;;1.00;;
15358;SDS011;7779;49.596;11.070;2023-12-22T01:17:26;2.70;;;0.97;;
15358;SDS011;7779;49.596;11.070;2023-12-22T01:19:52;2.67;;;1.00;;
15358;SDS011;7779;49.596;11.070;2023-12-22T01:22:17;3.40;;;0.83;;
15358;SDS011;7779;49.596;11.070;2023-12-22T01:24:43;4.17;;;1.10;;
15358;SDS011;7779;49.596;11.070;2023-12-22T01:27:10;1.77;;;0.70;;
15358;SDS011;7779;49.596;11.070;2023-12-22T01:29:36;3.13;;;0.80;;
15358;SDS011;7779;49.596;11.070;2023-12-22T01:32:02;4.10;;;0.80;;
15358;SDS011;7779;49.596;11.070;2023-12-22T01:34:29;4.37;;;0.80;;
15358;SDS011;7779;49.596;11.070;2023-12-22T01:36:54;2.40;;;0.70;;
15358;SDS011;7779;49.596;11.070;2023-12-22T01:39:20;4.40;;;1.30;;
15358;SDS011;7779;49.596;11.070;2023-12-22T01:41:46;3.20;;;0.80;;
15358;SDS011;7779;49.596;11.070;2023-12-22T01:44:12;4.77;;;0.83;;
15358;SDS011;7779;49.596;11.070;2023-12-22T01:46:37;1.73;;;0.63;;
15358;SDS011;7779;49.596;11.070;2023-12-22T01:49:04;4.27;;;0.77;;
15358;SDS011;7779;49.596;11.070;2023-12-22T01:51:33;5.37;;;0.90;;
15358;SDS011;7779;49.596;11.070;2023-12-22T01:54:04;2.87;;;0.80;;
15358;SDS011;7779;49.596;11.070;2023-12-22T01:56:30;2.57;;;0.63;;
15358;SDS011;7779;49.596;11.070;2023-12-22T01:58:57;3.30;;;0.80;;
15358;SDS011;7779;49.596;11.070;2023-12-22T02:01:27;1.23;;;0.67;;
15358;SDS011;7779;49.596;11.070;2023-12-22T02:03:53;3.47;;;1.30;;
15358;SDS011;7779;49.596;11.070;2023-12-22T02:06:21;3.73;;;0.70;;
15358;SDS011;7779;49.596;11.070;2023-12-22T02:08:47;0.80;;;0.40;;
15358;SDS011;7779;49.596;11.070;2023-12-22T02:11:13;1.37;;;0.53;;
15358;SDS011;7779;49.596;11.070;2023-12-22T02:13:40;1.17;;;0.50;;
15358;SDS011;7779;49.596;11.070;2023-12-22T02:16:14;3.80;;;0.70;;
15358;SDS011;7779;49.596;11.070;2023-12-22T02:18:56;1.00;;;0.50;;
15358;SDS011;7779;49.596;11.070;2023-12-22T02:22:02;1.50;;;0.50;;
15358;SDS011;7779;49.596;11.070;2023-12-22T02:24:29;3.13;;;0.67;;
15358;SDS011;7779;49.596;11.070;2023-12-22T02:26:55;2.47;;;0.53;;
15358;SDS011;7779;49.596;11.070;2023-12-22T02:29:37;2.60;;;0.50;;
15358;SDS011;7779;49.596;11.070;2023-12-22T02:32:13;1.67;;;0.50;;
15358;SDS011;7779;49.596;11.070;2023-12-22T02:34:59;1.93;;;0.57;;
15358;SDS011;7779;49.596;11.070;2023-12-22T02:37:38;1.17;;;0.57;;
15358;SDS011;7779;49.596;11.070;2023-12-22T02:40:06;1.07;;;0.50;;
15358;SDS011;7779;49.596;11.070;2023-12-22T02:42:34;1.53;;;0.40;;
15358;SDS011;7779;49.596;11.070;2023-12-22T02:45:03;2.93;;;0.57;;
15358;SDS011;7779;49.596;11.070;2023-12-22T02:47:30;1.90;;;0.43;;
15358;SDS011;7779;49.596;11.070;2023-12-22T02:49:58;2.97;;;0.50;;
15358;SDS011;7779;49.596;11.070;2023-12-22T02:52:24;1.97;;;0.60;;
15358;SDS011;7779;49.596;11.070;2023-12-22T02:54:50;1.83;;;0.50;;
15358;SDS011;7779;49.596;11.070;2023-12-22T02:57:15;1.03;;;0.40;;
15358;SDS011;7779;49.596;11.070;2023-12-22T02:59:41;2.30;;;0.40;;
15358;SDS011;7779;49.596;11.070;2023-12-22T03:02:07;0.80;;;0.30;;
15358;SDS011;7779;49.596;11.070;2023-12-22T03:04:32;2.80;;;0.60;;
15358;SDS011;7779;49.596;11.070;2023-12-22T03:06:58;1.50;;;0.40;;
15358;SDS011;7779;49.596;11.070;2023-12-22T03:09:24;1.00;;;0.40;;
15358;SDS011;7779;49.596;11.070;2023-12-22T03:11:50;1.10;;;0.27;;
15358;SDS011;7779;49.596;11.070;2023-12-22T03:14:19;0.40;;;0.40;;
15358;SDS011;7779;49.596;11.070;2023-12-22T03:16:45;1.23;;;0.23;;
15358;SDS011;7779;49.596;11.070;2023-12-22T03:19:11;0.40;;;0.20;;
15358;SDS011;7779;49.596;11.070;2023-12-22T03:21:36;0.80;;;0.30;;
15358;SDS011;7779;49.596;11.070;2023-12-22T03:24:02;1.47;;;0.50;;
15358;SDS011;7779;49.596;11.070;2023-12-22T03:26:28;1.00;;;0.40;;
15358;SDS011;7779;49.596;11.070;2023-12-22T03:28:54;1.07;;;0.40;;
15358;SDS011;7779;49.596;11.070;2023-12-22T03:31:19;0.30;;;0.20;;
15358;SDS011;7779;49.596;11.070;2023-12-22T03:33:45;0.27;;;0.13;;
15358;SDS011;7779;49.596;11.070;2023-12-22T03:36:11;0.87;;;0.30;;
15358;SDS011;7779;49.596;11.070;2023-12-22T03:38:36;0.10;;;0.10;;
15358;SDS011;7779;49.596;11.070;2023-12-22T03:41:02;1.00;;;0.20;;
15358;SDS011;7779;49.596;11.070;2023-12-22T03:43:28;0.73;;;0.30;;
15358;SDS011;7779;49.596;11.070;2023-12-22T03:45:56;0.40;;;0.20;;
15358;SDS011;7779;49.596;11.070;2023-12-22T03:48:22;0.30;;;0.20;;
15358;SDS011;7779;49.596;11.070;2023-12-22T03:50:47;0.50;;;0.20;;
15358;SDS011;7779;49.596;11.070;2023-12-22T03:53:13;0.20;;;0.20;;
15358;SDS011;7779;49.596;11.070;2023-12-22T03:55:39;1.37;;;0.30;;
15358;SDS011;7779;49.596;11.070;2023-12-22T03:58:04;0.33;;;0.20;;
15358;SDS011;7779;49.596;11.070;2023-12-22T04:00:32;0.30;;;0.10;;
15358;SDS011;7779;49.596;11.070;2023-12-22T04:02:58;2.23;;;0.47;;
15358;SDS011;7779;49.596;11.070;2023-12-22T04:05:24;0.60;;;0.30;;
15358;SDS011;7779;49.596;11.070;2023-12-22T04:07:50;2.33;;;0.30;;
15358;SDS011;7779;49.596;11.070;2023-12-22T04:10:18;1.03;;;0.20;;
15358;SDS011;7779;49.596;11.070;2023-12-22T04:12:44;0.67;;;0.30;;
15358;SDS011;7779;49.596;11.070;2023-12-22T04:15:10;0.93;;;0.40;;
15358;SDS011;7779;49.596;11.070;2023-12-22T04:17:36;1.40;;;0.27;;
15358;SDS011;7779;49.596;11.070;2023-12-22T04:20:02;2.43;;;0.40;;
15358;SDS011;7779;49.596;11.070;2023-12-22T04:22:28;1.43;;;0.40;;
15358;SDS011;7779;49.596;11.070;2023-12-22T04:24:53;0.97;;;0.33;;
15358;SDS011;7779;49.596;11.070;2023-12-22T04:27:19;1.67;;;0.40;;
15358;SDS011;7779;49.596;11.070;2023-12-22T04:29:45;1.47;;;0.40;;
15358;SDS011;7779;49.596;11.070;2023-12-22T04:32:10;1.90;;;0.40;;
15358;SDS011;7779;49.596;11.070;2023-12-22T04:34:36;1.10;;;0.50;;
15358;SDS011;7779;49.596;11.070;2023-12-22T04:37:02;1.57;;;0.40;;
15358;SDS011;7779;49.596;11.070;2023-12-22T04:39:28;1.53;;;0.30;;
15358;SDS011;7779;49.596;11.070;2023-12-22T04:41:53;1.13;;;0.30;;
15358;SDS011;7779;49.596;11.070;2023-12-22T04:44:19;0.67;;;0.23;;
15358;SDS011;7779;49.596;11.070;2023-12-22T04:46:45;1.13;;;0.30;;
15358;SDS011;7779;49.596;11.070;2023-12-22T04:49:10;1.30;;;0.40;;
15358;SDS011;7779;49.596;11.070;2023-12-22T04:51:36;1.93;;;0.50;;
15358;SDS011;7779;49.596;11.070;2023-12-22T04:54:02;0.87;;;0.40;;
15358;SDS011;7779;49.596;11.070;2023-12-22T04:56:28;0.43;;;0.13;;
15358;SDS011;7779;49.596;11.070;2023-12-22T04:58:53;0.87;;;0.40;;
15358;SDS011;7779;49.596;11.070;2023-12-22T05:01:19;1.47;;;0.43;;
15358;SDS011;7779;49.596;11.070;2023-12-22T05:03:45;0.43;;;0.30;;
15358;SDS011;7779;49.596;11.070;2023-12-22T05:06:11;0.87;;;0.30;;
15358;SDS011;7779;49.596;11.070;2023-12-22T05:08:37;1.37;;;0.30;;
15358;SDS011;7779;49.596;11.070;2023-12-22T05:11:03;0.67;;;0.20;;
15358;SDS011;7779;49.596;11.070;2023-12-22T05:13:28;0.70;;;0.20;;
15358;SDS011;7779;49.596;11.070;2023-12-22T05:15:54;1.47;;;0.20;;
15358;SDS011;7779;49.596;11.070;2023-12-22T05:18:20;0.80;;;0.40;;
15358;SDS011;7779;49.596;11.070;2023-12-22T05:20:46;0.30;;;0.20;;
15358;SDS011;7779;49.596;11.070;2023-12-22T05:23:11;0.37;;;0.20;;
15358;SDS011;7779;49.596;11.070;2023-12-22T05:25:37;1.00;;;0.40;;
15358;SDS011;7779;49.596;11.070;2023-12-22T05:28:03;1.80;;;0.43;;
15358;SDS011;7779;49.596;11.070;2023-12-22T05:30:29;0.33;;;0.23;;
15358;SDS011;7779;49.596;11.070;2023-12-22T05:32:54;0.97;;;0.30;;
15358;SDS011;7779;49.596;11.070;2023-12-22T05:35:20;0.60;;;0.20;;
15358;SDS011;7779;49.596;11.070;2023-12-22T05:37:46;1.30;;;0.30;;
15358;SDS011;7779;49.596;11.070;2023-12-22T05:40:13;0.63;;;0.20;;
15358;SDS011;7779;49.596;11.070;2023-12-22T05:42:39;1.90;;;0.30;;
15358;SDS011;7779;49.596;11.070;2023-12-22T05:45:04;1.37;;;0.20;;
15358;SDS011;7779;49.596;11.070;2023-12-22T05:47:31;0.90;;;0.20;;
15358;SDS011;7779;49.596;11.070;2023-12-22T05:49:58;0.83;;;0.30;;
15358;SDS011;7779;49.596;11.070;2023-12-22T05:52:24;1.23;;;0.40;;
15358;SDS011;7779;49.596;11.070;2023-12-22T05:54:50;0.50;;;0.30;;
15358;SDS011;7779;49.596;11.070;2023-12-22T05:57:15;1.00;;;0.23;;
15358;SDS011;7779;49.596;11.070;2023-12-22T05:59:42;0.80;;;0.20;;
15358;SDS011;7779;49.596;11.070;2023-12-22T06:02:08;0.40;;;0.30;;
15358;SDS011;7779;49.596;11.070;2023-12-22T06:04:33;0.27;;;0.20;;
15358;SDS011;7779;49.596;11.070;2023-12-22T06:07:00;2.10;;;0.30;;
15358;SDS011;7779;49.596;11.070;2023-12-22T06:09:25;1.33;;;0.27;;
15358;SDS011;7779;49.596;11.070;2023-12-22T06:11:51;1.20;;;0.30;;
15358;SDS011;7779;49.596;11.070;2023-12-22T06:14:17;1.10;;;0.30;;
15358;SDS011;7779;49.596;11.070;2023-12-22T06:16:43;0.73;;;0.20;;
15358;SDS011;7779;49.596;11.070;2023-12-22T06:19:09;1.63;;;0.40;;
15358;SDS011;7779;49.596;11.070;2023-12-22T06:21:38;1.17;;;0.40;;
15358;SDS011;7779;49.596;11.070;2023-12-22T06:24:04;0.60;;;0.20;;
15358;SDS011;7779;49.596;11.070;2023-12-22T06:26:33;2.43;;;0.30;;
15358;SDS011;7779;49.596;11.070;2023-12-22T06:28:58;1.17;;;0.30;;
15358;SDS011;7779;49.596;11.070;2023-12-22T06:31:24;0.87;;;0.30;;
15358;SDS011;7779;49.596;11.070;2023-12-22T06:33:50;0.60;;;0.20;;
15358;SDS011;7779;49.596;11.070;2023-12-22T06:36:24;1.33;;;0.23;;
15358;SDS011;7779;49.596;11.070;2023-12-22T06:38:50;0.80;;;0.23;;
15358;SDS011;7779;49.596;11.070;2023-12-22T06:41:27;0.73;;;0.20;;
15358;SDS011;7779;49.596;11.070;2023-12-22T06:43:55;1.00;;;0.37;;
15358;SDS011;7779;49.596;11.070;2023-12-22T06:46:27;0.90;;;0.33;;
15358;SDS011;7779;49.596;11.070;2023-12-22T06:48:57;1.23;;;0.30;;
15358;SDS011;7779;49.596;11.070;2023-12-22T06:51:24;0.93;;;0.50;;
15358;SDS011;7779;49.596;11.070;2023-12-22T06:53:52;0.53;;;0.20;;
15358;SDS011;7779;49.596;11.070;2023-12-22T06:56:21;0.50;;;0.20;;
15358;SDS011;7779;49.596;11.070;2023-12-22T06:58:49;0.70;;;0.30;;
15358;SDS011;7779;49.596;11.070;2023-12-22T07:03:56;0.70;;;0.20;;
15358;SDS011;7779;49.596;11.070;2023-12-22T07:06:23;0.63;;;0.30;;
15358;SDS011;7779;49.596;11.070;2023-12-22T07:08:56;0.87;;;0.30;;
15358;SDS011;7779;49.596;11.070;2023-12-22T07:11:37;1.50;;;0.47;;
15358;SDS011;7779;49.596;11.070;2023-12-22T07:14:07;0.60;;;0.40;;
15358;SDS011;7779;49.596;11.070;2023-12-22T07:16:34;1.60;;;0.80;;
15358;SDS011;7779;49.596;11.070;2023-12-22T07:19:01;0.83;;;0.50;;
15358;SDS011;7779;49.596;11.070;2023-12-22T07:21:27;2.30;;;0.60;;
15358;SDS011;7779;49.596;11.070;2023-12-22T07:23:52;0.83;;;0.50;;
15358;SDS011;7779;49.596;11.070;2023-12-22T07:26:18;2.33;;;0.80;;
15358;SDS011;7779;49.596;11.070;2023-12-22T07:28:46;1.00;;;0.70;;
15358;SDS011;7779;49.596;11.070;2023-12-22T07:31:13;1.67;;;0.60;;
15358;SDS011;7779;49.596;11.070;2023-12-22T07:33:39;2.57;;;0.60;;
15358;SDS011;7779;49.596;11.070;2023-12-22T07:36:06;0.47;;;0.40;;
15358;SDS011;7779;49.596;11.070;2023-12-22T07:38:32;3.80;;;0.70;;
15358;SDS011;7779;49.596;11.070;2023-12-22T07:40:58;1.60;;;0.63;;
15358;SDS011;7779;49.596;11.070;2023-12-22T07:43:24;2.53;;;0.73;;
15358;SDS011;7779;49.596;11.070;2023-12-22T07:45:50;2.10;;;0.60;;
15358;SDS011;7779;49.596;11.070;2023-12-22T07:48:19;0.97;;;0.50;;
15358;SDS011;7779;49.596;11.070;2023-12-22T07:50:44;1.33;;;0.60;;
15358;SDS011;7779;49.596;11.070;2023-12-22T07:53:11;1.60;;;0.60;;
15358;SDS011;7779;49.596;11.070;2023-12-22T07:55:36;1.77;;;0.80;;
15358;SDS011;7779;49.596;11.070;2023-12-22T07:58:03;0.50;;;0.43;;
15358;SDS011;7779;49.596;11.070;2023-12-22T08:00:30;1.77;;;0.80;;
15358;SDS011;7779;49.596;11.070;2023-12-22T08:02:57;2.00;;;0.53;;
15358;SDS011;7779;49.596;11.070;2023-12-22T08:05:22;1.30;;;0.60;;
15358;SDS011;7779;49.596;11.070;2023-12-22T08:07:48;1.13;;;0.50;;
15358;SDS011;7779;49.596;11.070;2023-12-22T08:10:14;1.57;;;0.67;;
15358;SDS011;7779;49.596;11.070;2023-12-22T08:12:41;1.50;;;0.50;;
15358;SDS011;7779;49.596;11.070;2023-12-22T08:15:07;0.83;;;0.40;;
15358;SDS011;7779;49.596;11.070;2023-12-22T08:17:35;2.63;;;0.70;;
15358;SDS011;7779;49.596;11.070;2023-12-22T08:20:03;1.17;;;0.50;;
15358;SDS011;7779;49.596;11.070;2023-12-22T08:22:29;1.83;;;0.77;;
15358;SDS011;7779;49.596;11.070;2023-12-22T08:24:55;2.07;;;0.50;;
15358;SDS011;7779;49.596;11.070;2023-12-22T08:27:20;2.43;;;0.47;;
15358;SDS011;7779;49.596;11.070;2023-12-22T08:29:46;1.13;;;0.63;;
15358;SDS011;7779;49.596;11.070;2023-12-22T08:32:12;1.33;;;0.50;;
15358;SDS011;7779;49.596;11.070;2023-12-22T08:34:38;1.20;;;0.60;;
15358;SDS011;7779;49.596;11.070;2023-12-22T08:37:03;3.67;;;0.50;;
15358;SDS011;7779;49.596;11.070;2023-12-22T08:39:29;1.47;;;0.70;;
15358;SDS011;7779;49.596;11.070;2023-12-22T08:41:54;2.77;;;0.80;;
15358;SDS011;7779;49.596;11.070;2023-12-22T08:44:20;2.60;;;0.80;;
15358;SDS011;7779;49.596;11.070;2023-12-22T08:46:46;1.10;;;0.60;;
15358;SDS011;7779;49.596;11.070;2023-12-22T08:49:12;2.70;;;0.50;;
15358;SDS011;7779;49.596;11.070;2023-12-22T08:51:37;1.27;;;0.43;;
15358;SDS011;7779;49.596;11.070;2023-12-22T08:54:03;1.47;;;0.50;;
15358;SDS011;7779;49.596;11.070;2023-12-22T08:56:29;1.57;;;0.70;;
15358;SDS011;7779;49.596;11.070;2023-12-22T08:58:55;0.90;;;0.57;;
15358;SDS011;7779;49.596;11.070;2023-12-22T09:01:23;1.30;;;0.40;;
15358;SDS011;7779;49.596;11.070;2023-12-22T09:03:50;1.07;;;0.50;;
15358;SDS011;7779;49.596;11.070;2023-12-22T09:06:18;0.90;;;0.40;;
15358;SDS011;7779;49.596;11.070;2023-12-22T09:08:47;1.20;;;0.53;;
15358;SDS011;7779;49.596;11.070;2023-12-22T09:11:15;2.03;;;0.50;;
15358;SDS011;7779;49.596;11.070;2023-12-22T09:13:43;2.07;;;0.80;;
15358;SDS011;7779;49.596;11.070;2023-12-22T09:16:09;0.63;;;0.40;;
15358;SDS011;7779;49.596;11.070;2023-12-22T09:18:36;1.43;;;0.50;;
15358;SDS011;7779;49.596;11.070;2023-12-22T09:21:02;1.83;;;0.60;;
15358;SDS011;7779;49.596;11.070;2023-12-22T09:23:28;1.50;;;0.67;;
15358;SDS011;7779;49.596;11.070;2023-12-22T09:25:54;2.20;;;0.60;;
15358;SDS011;7779;49.596;11.070;2023-12-22T09:28:20;1.57;;;0.50;;
15358;SDS011;7779;49.596;11.070;2023-12-22T09:30:46;0.83;;;0.40;;
15358;SDS011;7779;49.596;11.070;2023-12-22T09:33:12;1.70;;;0.70;;
15358;SDS011;7779;49.596;11.070;2023-12-22T09:35:38;1.27;;;0.60;;
15358;SDS011;7779;49.596;11.070;2023-12-22T09:38:07;2.90;;;0.60;;
15358;SDS011;7779;49.596;11.070;2023-12-22T09:40:37;1.60;;;0.70;;
15358;SDS011;7779;49.596;11.070;2023-12-22T09:43:04;1.77;;;0.80;;
15358;SDS011;7779;49.596;11.070;2023-12-22T09:45:33;2.10;;;0.70;;
15358;SDS011;7779;49.596;11.070;2023-12-22T09:48:00;3.63;;;0.70;;
15358;SDS011;7779;49.596;11.070;2023-12-22T09:50:28;2.10;;;0.63;;
15358;SDS011;7779;49.596;11.070;2023-12-22T09:52:56;1.37;;;0.60;;
15358;SDS011;7779;49.596;11.070;2023-12-22T09:55:22;3.60;;;0.80;;
15358;SDS011;7779;49.596;11.070;2023-12-22T09:57:51;1.30;;;0.80;;
15358;SDS011;7779;49.596;11.070;2023-12-22T10:00:17;1.63;;;0.73;;
15358;SDS011;7779;49.596;11.070;2023-12-22T10:02:44;3.43;;;0.90;;
15358;SDS011;7779;49.596;11.070;2023-12-22T10:05:11;2.30;;;0.70;;
15358;SDS011;7779;49.596;11.070;2023-12-22T10:07:44;1.93;;;0.70;;
15358;SDS011;7779;49.596;11.070;2023-12-22T10:10:12;2.10;;;0.77;;
15358;SDS011;7779;49.596;11.070;2023-12-22T10:12:38;2.97;;;0.90;;
15358;SDS011;7779;49.596;11.070;2023-12-22T10:15:08;2.43;;;0.90;;
15358;SDS011;7779;49.596;11.070;2023-12-22T10:17:37;3.50;;;1.00;;
15358;SDS011;7779;49.596;11.070;2023-12-22T10:20:03;2.97;;;0.80;;
15358;SDS011;7779;49.596;11.070;2023-12-22T10:22:29;3.23;;;0.83;;
15358;SDS011;7779;49.596;11.070;2023-12-22T10:24:55;3.57;;;0.70;;
15358;SDS011;7779;49.596;11.070;2023-12-22T10:27:21;1.73;;;0.73;;
15358;SDS011;7779;49.596;11.070;2023-12-22T10:29:49;1.20;;;0.50;;
15358;SDS011;7779;49.596;11.070;2023-12-22T10:32:18;1.20;;;0.50;;
15358;SDS011;7779;49.596;11.070;2023-12-22T10:34:46;1.57;;;0.50;;
15358;SDS011;7779;49.596;11.070;2023-12-22T10:37:12;2.77;;;0.50;;
15358;SDS011;7779;49.596;11.070;2023-12-22T10:39:38;1.73;;;0.50;;
15358;SDS011;7779;49.596;11.070;2023-12-22T10:42:05;2.70;;;0.57;;
15358;SDS011;7779;49.596;11.070;2023-12-22T10:44:31;1.47;;;0.43;;
15358;SDS011;7779;49.596;11.070;2023-12-22T10:46:57;1.93;;;0.50;;
15358;SDS011;7779;49.596;11.070;2023-12-22T10:49:25;1.13;;;0.43;;
15358;SDS011;7779;49.596;11.070;2023-12-22T10:51:51;0.87;;;0.33;;
15358;SDS011;7779;49.596;11.070;2023-12-22T10:54:18;1.43;;;0.53;;
15358;SDS011;7779;49.596;11.070;2023-12-22T10:56:44;0.73;;;0.40;;
15358;SDS011;7779;49.596;11.070;2023-12-22T10:59:10;1.90;;;0.60;;
15358;SDS011;7779;49.596;11.070;2023-12-22T11:01:36;2.90;;;0.80;;
15358;SDS011;7779;49.596;11.070;2023-12-22T11:04:05;1.70;;;0.70;;
15358;SDS011;7779;49.596;11.070;2023-12-22T11:06:37;0.93;;;0.60;;
15358;SDS011;7779;49.596;11.070;2023-12-22T11:09:07;1.23;;;0.63;;
15358;SDS011;7779;49.596;11.070;2023-12-22T11:11:34;1.03;;;0.67;;
15358;SDS011;7779;49.596;11.070;2023-12-22T11:14:03;1.50;;;0.80;;
15358;SDS011;7779;49.596;11.070;2023-12-22T11:16:34;1.07;;;0.50;;
15358;SDS011;7779;49.596;11.070;2023-12-22T11:19:01;2.40;;;0.63;;
15358;SDS011;7779;49.596;11.070;2023-12-22T11:21:28;1.67;;;0.70;;
15358;SDS011;7779;49.596;11.070;2023-12-22T11:23:56;1.90;;;0.70;;
15358;SDS011;7779;49.596;11.070;2023-12-22T11:26:22;3.00;;;0.80;;
15358;SDS011;7779;49.596;11.070;2023-12-22T11:28:50;2.57;;;0.80;;
15358;SDS011;7779;49.596;11.070;2023-12-22T11:31:17;2.73;;;0.73;;
15358;SDS011;7779;49.596;11.070;2023-12-22T11:33:47;1.50;;;0.60;;
15358;SDS011;7779;49.596;11.070;2023-12-22T11:36:15;1.07;;;0.57;;
15358;SDS011;7779;49.596;11.070;2023-12-22T11:38:44;1.93;;;0.60;;
15358;SDS011;7779;49.596;11.070;2023-12-22T11:41:21;1.20;;;0.40;;
15358;SDS011;7779;49.596;11.070;2023-12-22T11:43:52;1.17;;;0.67;;
15358;SDS011;7779;49.596;11.070;2023-12-22T11:46:19;2.87;;;0.77;;
15358;SDS011;7779;49.596;11.070;2023-12-22T11:48:48;2.30;;;0.60;;
15358;SDS011;7779;49.596;11.070;2023-12-22T11:51:16;2.67;;;0.87;;
15358;SDS011;7779;49.596;11.070;2023-12-22T11:53:43;1.67;;;0.40;;
15358;SDS011;7779;49.596;11.070;2023-12-22T11:56:10;1.43;;;0.50;;
15358;SDS011;7779;49.596;11.070;2023-12-22T12:01:07;1.73;;;0.53;;
15358;SDS011;7779;49.596;11.070;2023-12-22T12:03:37;1.57;;;1.10;;
15358;SDS011;7779;49.596;11.070;2023-12-22T12:06:23;1.87;;;0.80;;
15358;SDS011;7779;49.596;11.070;2023-12-22T12:08:58;1.87;;;0.60;;
15358;SDS011;7779;49.596;11.070;2023-12-22T12:14:37;3.20;;;0.80;;
15358;SDS011;7779;49.596;11.070;2023-12-22T12:17:07;2.20;;;0.63;;
15358;SDS011;7779;49.596;11.070;2023-12-22T12:19:35;3.90;;;0.93;;
15358;SDS011;7779;49.596;11.070;2023-12-22T12:22:03;1.40;;;0.73;;
15358;SDS011;7779;49.596;11.070;2023-12-22T12:24:29;2.30;;;0.50;;
15358;SDS011;7779;49.596;11.070;2023-12-22T12:26:55;1.13;;;0.63;;
15358;SDS011;7779;49.596;11.070;2023-12-22T12:29:21;1.70;;;0.77;;
15358;SDS011;7779;49.596;11.070;2023-12-22T12:31:47;2.93;;;1.07;;
15358;SDS011;7779;49.596;11.070;2023-12-22T12:34:13;2.30;;;0.80;;
15358;SDS011;7779;49.596;11.070;2023-12-22T12:36:42;4.30;;;1.10;;
15358;SDS011;7779;49.596;11.070;2023-12-22T12:39:09;5.43;;;1.07;;
15358;SDS011;7779;49.596;11.070;2023-12-22T12:41:44;2.33;;;0.97;;
15358;SDS011;7779;49.596;11.070;2023-12-22T12:44:19;3.10;;;1.20;;
15358;SDS011;7779;49.596;11.070;2023-12-22T12:46:49;2.67;;;1.23;;
15358;SDS011;7779;49.596;11.070;2023-12-22T12:49:15;2.70;;;0.93;;
15358;SDS011;7779;49.596;11.070;2023-12-22T12:51:46;3.97;;;1.40;;
15358;SDS011;7779;49.596;11.070;2023-12-22T12:54:14;2.90;;;1.10;;
15358;SDS011;7779;49.596;11.070;2023-12-22T12:56:40;4.97;;;1.50;;
15358;SDS011;7779;49.596;11.070;2023-12-22T12:59:09;3.43;;;1.20;;
15358;SDS011;7779;49.596;11.070;2023-12-22T13:01:44;3.83;;;1.40;;
15358;SDS011;7779;49.596;11.070;2023-12-22T13:04:12;4.57;;;1.33;;
15358;SDS011;7779;49.596;11.070;2023-12-22T13:06:45;4.80;;;1.80;;
15358;SDS011;7779;49.596;11.070;2023-12-22T13:09:14;5.30;;;1.60;;
15358;SDS011;7779;49.596;11.070;2023-12-22T13:11:45;4.27;;;1.50;;
15358;SDS011;7779;49.596;11.070;2023-12-22T13:14:12;4.13;;;1.67;;
15358;SDS011;7779;49.596;11.070;2023-12-22T13:16:48;4.53;;;1.53;;
15358;SDS011;7779;49.596;11.070;2023-12-22T13:19:14;4.70;;;1.37;;
15358;SDS011;7779;49.596;11.070;2023-12-22T13:21:40;3.17;;;1.60;;
15358;SDS011;7779;49.596;11.070;2023-12-22T13:24:12;5.50;;;1.70;;
15358;SDS011;7779;49.596;11.070;2023-12-22T13:26:43;4.67;;;1.20;;
15358;SDS011;7779;49.596;11.070;2023-12-22T13:29:10;3.17;;;1.73;;
15358;SDS011;7779;49.596;11.070;2023-12-22T13:31:39;6.40;;;1.30;;
15358;SDS011;7779;49.596;11.070;2023-12-22T13:34:09;5.27;;;1.33;;
15358;SDS011;7779;49.596;11.070;2023-12-22T13:36:36;5.97;;;1.63;;
15358;SDS011;7779;49.596;11.070;2023-12-22T13:39:04;6.73;;;1.80;;
15358;SDS011;7779;49.596;11.070;2023-12-22T13:41:35;4.30;;;1.47;;
15358;SDS011;7779;49.596;11.070;2023-12-22T13:44:10;5.20;;;1.30;;
15358;SDS011;7779;49.596;11.070;2023-12-22T13:46:37;4.07;;;1.53;;
15358;SDS011;7779;49.596;11.070;2023-12-22T13:49:06;4.60;;;1.20;;
15358;SDS011;7779;49.596;11.070;2023-12-22T13:51:42;5.90;;;1.87;;
15358;SDS011;7779;49.596;11.070;2023-12-22T13:54:09;3.63;;;1.40;;
15358;SDS011;7779;49.596;11.070;2023-12-22T13:56:36;4.87;;;1.50;;
15358;SDS011;7779;49.596;11.070;2023-12-22T13:59:05;4.90;;;1.23;;
15358;SDS011;7779;49.596;11.070;2023-12-22T14:01:31;4.03;;;1.27;;
15358;SDS011;7779;49.596;11.070;2023-12-22T14:03:57;5.07;;;1.17;;
15358;SDS011;7779;49.596;11.070;2023-12-22T14:06:27;3.03;;;0.90;;
15358;SDS011;7779;49.596;11.070;2023-12-22T14:08:54;3.73;;;1.10;;
15358;SDS011;7779;49.596;11.070;2023-12-22T14:11:21;3.60;;;1.10;;
15358;SDS011;7779;49.596;11.070;2023-12-22T14:13:47;2.17;;;1.00;;
15358;SDS011;7779;49.596;11.070;2023-12-22T14:16:14;5.43;;;1.47;;
15358;SDS011;7779;49.596;11.070;2023-12-22T14:18:41;1.93;;;1.07;;
15358;SDS011;7779;49.596;11.070;2023-12-22T14:21:07;2.57;;;0.93;;
15358;SDS011;7779;49.596;11.070;2023-12-22T14:23:33;2.87;;;0.70;;
15358;SDS011;7779;49.596;11.070;2023-12-22T14:25:59;2.17;;;0.73;;
15358;SDS011;7779;49.596;11.070;2023-12-22T14:28:24;2.80;;;1.10;;
15358;SDS011;7779;49.596;11.070;2023-12-22T14:30:50;0.90;;;0.60;;
15358;SDS011;7779;49.596;11.070;2023-12-22T14:33:16;1.10;;;0.60;;
15358;SDS011;7779;49.596;11.070;2023-12-22T14:35:41;1.63;;;0.67;;
15358;SDS011;7779;49.596;11.070;2023-12-22T14:38:07;4.13;;;0.80;;
15358;SDS011;7779;49.596;11.070;2023-12-22T14:40:33;2.53;;;0.60;;
15358;SDS011;7779;49.596;11.070;2023-12-22T14:42:59;1.47;;;0.77;;
15358;SDS011;7779;49.596;11.070;2023-12-22T14:45:26;1.30;;;0.60;;
15358;SDS011;7779;49.596;11.070;2023-12-22T14:47:52;2.10;;;0.90;;
15358;SDS011;7779;49.596;11.070;2023-12-22T14:50:18;3.87;;;0.93;;
15358;SDS011;7779;49.596;11.070;2023-12-22T14:52:44;1.57;;;1.00;;
15358;SDS011;7779;49.596;11.070;2023-12-22T14:55:10;2.20;;;0.57;;
15358;SDS011;7779;49.596;11.070;2023-12-22T14:57:36;1.67;;;0.73;;